Cleveland, Ohio
Current Conditions -  °F | °C
As of 10:53 AM on Friday 28 Nov 2014 (Local Time) from KBKL Reporting Station
Overcast Overcast  
Wind Chill: 14°   Ceiling: 3300
Heat Index: 24°   Visibility: 10mi
Dew Point: 16°   Wind: 10mph
Humidity: 71%   Direction: 210°SSW
Pressure: 30.35"   Gusts: NA
Location:  41.5°N, 81.69°W
Report Text: KBKL 281553Z 21009KT 10SM SCT027 OVC033 M04/M09 A3035 RMK AO2 SNB08E39 SLP285 P0000 T10441089
Loading
Personal Weather Stations






























Interactive Weather Map New forecast layout! Learn more

10-Day Weather Forecast

Advertisements
Track Severe Weather on mobile